Portada
METAR-TAF:

METAR-TAF

Aeroports :

Great Barrier Reef Airport

Illa de Hamilton, Austràlia

latitud: 20-21-29S, longitud: 148-57-06E, altitud: 5 m

Observació

L'informe es va fer fa 26 minuts, a les 14:00 UTC
Vent 5 kt del Sud
Temperatura 19°C
Humitat 94%
Pressió 1016 hPa
Visibilitat 10 km o més

METAR: YBHM 161400Z AUTO 19005KT 9999 // NCD 19/18 Q1016

Hora: 00:26 (14:26 UTC)

Pronòstic

L'informe es va fer fa 3 hores i 36 minuts, a les 10:50 UTC
Pronòstic vàlid del 16 a les 12 UTC al 16 a les 24 UTC
Vent 6 kt del Sud/Sud-Est
Visibilitat 10 km o més
Escasses núvols a una alçada de 1000 ft
A partir de les 16 a les 1800 UTC
Vent 10 kt del Sud/Sud-Est
Visibilitat 10 km o més
Escasses núvols a una alçada de 1000 ft

TAF: YBHM 161050Z 1612/1624 16006KT 9999 FEW010 FM161800 16010KT 9999 FEW010

Observacions i pronòstics meteorològics de més de 4000 aeroports (METAR i TAF).

Les estacions disponibles són els punts grocs i vermells al mapa.

Posi el ratolí al punt desitjat per veure el nom de l'estació.

Feu clic per veure les observacions i els pronòstics meteorològics.

Per canviar el mapa: feu clic els botons verds amb una creu de color negre per apropar; al botó verd amb un guió per allunyar la imatge; o en les fletxes verdes per a mapes adjacents.


METAR-TAF: